Time;durP1;ratioP1;P1;durP2;ratioP2;P2;SDS_P1;SDS_P2;PMS_P1;PMS_P2;Temp;Humidity;BMP_temperature;BMP_pressure;BME280_temperature;BME280_humidity;BME280_pressure;Samples;Min_cycle;Max_cycle;Signal;HPM_P1;HPM_P2
2023/05/21 00:01:01;;;;;;;6.53;4.88;;;15.70;99.90;;;;;;4936330;29;20218;-80
2023/05/21 00:03:29;;;;;;;9.80;5.15;;;15.70;99.90;;;;;;4934534;29;20196;-80
2023/05/21 00:05:55;;;;;;;8.63;5.20;;;15.70;99.90;;;;;;4932406;29;20198;-80
2023/05/21 00:08:22;;;;;;;10.25;5.13;;;15.60;99.90;;;;;;4937327;29;20191;-80
2023/05/21 00:10:48;;;;;;;9.20;4.72;;;15.60;99.90;;;;;;4917645;29;20296;-80
2023/05/21 00:13:14;;;;;;;9.40;4.72;;;15.60;99.90;;;;;;4933999;29;20195;-80
2023/05/21 00:15:39;;;;;;;7.88;5.30;;;15.60;99.90;;;;;;4923336;29;20199;-80
2023/05/21 00:18:05;;;;;;;10.85;5.53;;;15.60;99.90;;;;;;4936393;29;20192;-82
2023/05/21 00:20:31;;;;;;;9.55;5.25;;;15.60;99.90;;;;;;4951655;29;20191;-80
2023/05/21 00:23:04;;;;;;;10.65;5.53;;;15.60;99.90;;;;;;4937447;29;20322;-80
2023/05/21 00:25:30;;;;;;;9.13;5.65;;;15.60;99.90;;;;;;4928313;29;20276;-80
2023/05/21 00:27:56;;;;;;;8.77;5.18;;;15.60;99.90;;;;;;4936264;29;20255;-80
2023/05/21 00:30:22;;;;;;;8.10;5.18;;;15.60;99.90;;;;;;4928211;29;20213;-80
2023/05/21 00:32:47;;;;;;;8.10;5.47;;;15.50;99.90;;;;;;4937441;29;20635;-80
2023/05/21 00:35:13;;;;;;;8.98;5.60;;;15.50;99.90;;;;;;4945857;29;20274;-80
2023/05/21 00:37:39;;;;;;;6.40;5.13;;;15.50;99.90;;;;;;4947086;29;20192;-80
2023/05/21 00:40:10;;;;;;;12.48;5.72;;;15.50;99.90;;;;;;4948484;29;20219;-81
2023/05/21 00:42:40;;;;;;;9.10;5.38;;;15.50;99.90;;;;;;4936936;29;20226;-80
2023/05/21 00:45:07;;;;;;;10.48;5.53;;;15.50;99.90;;;;;;4936765;29;20247;-82
2023/05/21 00:47:34;;;;;;;11.35;5.20;;;15.50;99.90;;;;;;4935468;29;20187;-80
2023/05/21 00:50:02;;;;;;;7.57;4.88;;;15.50;99.90;;;;;;4935221;29;20191;-79
2023/05/21 00:52:28;;;;;;;8.48;4.72;;;15.50;99.90;;;;;;4935101;29;20232;-80
2023/05/21 00:54:54;;;;;;;11.05;5.25;;;15.50;99.90;;;;;;4935383;29;20243;-80
2023/05/21 00:57:24;;;;;;;8.65;5.53;;;15.50;99.90;;;;;;4930549;29;20645;-80
2023/05/21 00:59:51;;;;;;;10.90;4.80;;;15.50;99.90;;;;;;4935498;29;20187;-80
2023/05/21 01:02:17;;;;;;;8.15;5.32;;;15.50;99.90;;;;;;4934526;29;20226;-81
2023/05/21 01:04:44;;;;;;;8.25;5.20;;;15.50;99.90;;;;;;4950483;29;20191;-80
2023/05/21 01:07:11;;;;;;;9.98;4.97;;;15.50;99.90;;;;;;4935479;29;20265;-80
2023/05/21 01:09:37;;;;;;;8.40;5.22;;;15.40;99.90;;;;;;4934790;29;20210;-81
2023/05/21 01:12:04;;;;;;;11.18;5.30;;;15.40;99.90;;;;;;4935414;29;20187;-81
2023/05/21 01:14:31;;;;;;;11.10;5.28;;;15.40;99.90;;;;;;4935307;29;20278;-80
2023/05/21 01:17:00;;;;;;;8.10;5.15;;;15.40;99.90;;;;;;4929998;29;20223;-80
2023/05/21 01:19:27;;;;;;;11.27;5.60;;;15.40;99.90;;;;;;4935761;29;20196;-80
2023/05/21 01:21:59;;;;;;;9.68;5.68;;;15.40;99.90;;;;;;4935044;29;20219;-80
2023/05/21 01:24:25;;;;;;;9.57;5.82;;;15.40;99.90;;;;;;4934578;29;20275;-80
2023/05/21 01:26:51;;;;;;;8.60;5.43;;;15.40;99.90;;;;;;4936470;29;20266;-80
2023/05/21 01:29:18;;;;;;;9.82;5.45;;;15.40;99.90;;;;;;4934629;29;20242;-80
2023/05/21 01:32:05;;;;;;;10.43;5.85;;;15.40;99.90;;;;;;4928139;29;20195;-80
2023/05/21 01:34:53;;;;;;;8.73;5.72;;;15.40;99.90;;;;;;4920959;29;20266;-80
2023/05/21 01:37:26;;;;;;;9.38;6.00;;;15.40;99.90;;;;;;4934129;29;20194;-80
2023/05/21 01:39:58;;;;;;;10.20;5.70;;;15.40;99.90;;;;;;4934425;29;20270;-80
2023/05/21 01:42:25;;;;;;;10.38;5.47;;;15.40;99.90;;;;;;4934252;29;20215;-80
2023/05/21 01:44:54;;;;;;;8.38;5.80;;;15.40;99.90;;;;;;4936179;29;20218;-80
2023/05/21 01:47:22;;;;;;;10.63;6.00;;;15.40;99.90;;;;;;4935928;29;20199;-80
2023/05/21 01:49:50;;;;;;;13.18;6.32;;;15.40;99.90;;;;;;4931345;29;20211;-80
2023/05/21 01:52:16;;;;;;;10.07;5.65;;;15.30;99.90;;;;;;4932251;29;20190;-80
2023/05/21 01:54:41;;;;;;;10.40;6.25;;;15.30;99.90;;;;;;4921890;29;20239;-80
2023/05/21 01:57:07;;;;;;;9.07;6.43;;;15.30;99.90;;;;;;4934505;29;20261;-80
2023/05/21 01:59:33;;;;;;;12.82;6.43;;;15.30;99.90;;;;;;4934516;29;20191;-80
2023/05/21 02:01:59;;;;;;;9.80;6.30;;;15.30;99.90;;;;;;4930920;29;20211;-81
2023/05/21 02:04:25;;;;;;;10.85;6.70;;;15.30;99.90;;;;;;4952140;29;20199;-81
2023/05/21 02:06:53;;;;;;;10.68;6.43;;;15.30;99.90;;;;;;4934842;29;20196;-80
2023/05/21 02:09:19;;;;;;;13.27;6.38;;;15.30;99.90;;;;;;4951773;29;20195;-81
2023/05/21 02:11:45;;;;;;;12.82;6.97;;;15.30;99.90;;;;;;4925037;29;20638;-80
2023/05/21 02:14:12;;;;;;;10.40;6.68;;;15.30;99.90;;;;;;4939004;29;20191;-81
2023/05/21 02:16:39;;;;;;;12.07;6.47;;;15.20;99.90;;;;;;4945906;29;20603;-81
2023/05/21 02:19:05;;;;;;;11.18;7.30;;;15.20;99.90;;;;;;4937632;29;20201;-82
2023/05/21 02:21:31;;;;;;;10.32;7.25;;;15.20;99.90;;;;;;4914292;29;20226;-80
2023/05/21 02:23:57;;;;;;;11.27;7.13;;;15.20;99.90;;;;;;4939009;29;20199;-80
2023/05/21 02:26:23;;;;;;;9.43;6.80;;;15.20;99.90;;;;;;4938542;29;21131;-83
2023/05/21 02:28:48;;;;;;;11.70;7.25;;;15.20;99.90;;;;;;4937752;29;20199;-81
2023/05/21 02:31:14;;;;;;;12.43;6.60;;;15.10;99.90;;;;;;4919772;29;20239;-82
2023/05/21 02:33:40;;;;;;;10.55;6.93;;;15.10;99.90;;;;;;4938236;29;20650;-87
2023/05/21 02:36:11;;;;;;;9.40;6.47;;;15.10;99.90;;;;;;4936717;29;20562;-82
2023/05/21 02:38:43;;;;;;;12.45;7.18;;;15.00;99.90;;;;;;4934653;29;20713;-81
2023/05/21 02:41:10;;;;;;;9.45;6.85;;;15.00;99.90;;;;;;4943069;29;20282;-82
2023/05/21 02:43:36;;;;;;;11.63;6.60;;;15.00;99.90;;;;;;4922160;29;20635;-81
2023/05/21 02:46:04;;;;;;;11.85;6.70;;;14.90;99.90;;;;;;4922049;29;20188;-85
2023/05/21 02:48:30;;;;;;;12.57;7.07;;;14.90;99.90;;;;;;4930534;29;20269;-81
2023/05/21 02:50:57;;;;;;;11.02;7.05;;;14.90;99.90;;;;;;4938376;29;20240;-81
2023/05/21 02:53:22;;;;;;;12.57;7.25;;;14.80;99.90;;;;;;4938607;29;20222;-81
2023/05/21 02:55:48;;;;;;;13.35;7.72;;;14.80;99.90;;;;;;4936985;29;20582;-81
2023/05/21 02:58:14;;;;;;;12.02;7.60;;;14.80;99.90;;;;;;4936834;29;20662;-81
2023/05/21 03:00:40;;;;;;;11.90;7.38;;;14.80;99.90;;;;;;4937103;29;20191;-81
2023/05/21 03:03:06;;;;;;;13.63;7.78;;;14.80;99.90;;;;;;4934356;29;20235;-84
2023/05/21 03:05:32;;;;;;;14.60;7.93;;;14.70;99.90;;;;;;4936672;29;20278;-81
2023/05/21 03:07:58;;;;;;;14.65;8.10;;;14.70;99.90;;;;;;4921265;29;20201;-81
2023/05/21 03:10:24;;;;;;;13.98;7.80;;;14.70;99.90;;;;;;4920879;29;20207;-85
2023/05/21 03:12:51;;;;;;;16.80;8.02;;;14.70;99.90;;;;;;4931764;29;20557;-81
2023/05/21 03:15:22;;;;;;;12.90;8.38;;;14.70;99.90;;;;;;4936402;29;20199;-81
2023/05/21 03:17:52;;;;;;;11.82;7.93;;;14.70;99.90;;;;;;4925427;29;20196;-81
2023/05/21 03:20:18;;;;;;;15.02;7.65;;;14.70;99.90;;;;;;4928430;29;20202;-81
2023/05/21 03:22:45;;;;;;;14.05;8.07;;;14.70;99.90;;;;;;4936201;29;20689;-82
2023/05/21 03:25:11;;;;;;;13.88;7.95;;;14.60;99.90;;;;;;4941837;29;20275;-82
2023/05/21 03:27:38;;;;;;;15.45;7.85;;;14.60;99.90;;;;;;4936716;29;20270;-81
2023/05/21 03:30:10;;;;;;;14.90;8.05;;;14.60;99.90;;;;;;4933855;29;20231;-82
2023/05/21 03:32:50;;;;;;;13.52;7.70;;;14.60;99.90;;;;;;4936686;29;20215;-80
2023/05/21 03:35:16;;;;;;;11.98;7.75;;;14.50;99.90;;;;;;4945845;29;20668;-81
2023/05/21 03:37:42;;;;;;;12.75;7.35;;;14.50;99.90;;;;;;4937415;29;20211;-80
2023/05/21 03:40:08;;;;;;;15.52;7.75;;;14.50;99.90;;;;;;4935926;29;20222;-81
2023/05/21 03:42:34;;;;;;;13.70;8.10;;;14.50;99.90;;;;;;4935858;29;20270;-80
2023/05/21 03:45:00;;;;;;;12.60;7.40;;;14.50;99.90;;;;;;4920446;29;20191;-85
2023/05/21 03:47:47;;;;;;;11.95;6.90;;;14.50;99.90;;;;;;4923440;29;20262;-81
2023/05/21 03:50:13;;;;;;;14.48;7.75;;;14.50;99.90;;;;;;4951779;29;20650;-82
2023/05/21 03:52:39;;;;;;;18.73;7.97;;;14.50;99.90;;;;;;4958451;28;20238;-82
2023/05/21 03:55:05;;;;;;;16.50;7.82;;;14.50;99.90;;;;;;4944784;29;20231;-83
2023/05/21 03:57:31;;;;;;;15.07;7.40;;;14.50;99.90;;;;;;4932289;29;20200;-81
2023/05/21 03:59:57;;;;;;;12.80;7.05;;;14.50;99.90;;;;;;4947676;29;20614;-82
2023/05/21 04:02:27;;;;;;;17.42;7.78;;;14.50;99.90;;;;;;4951549;29;20254;-81
2023/05/21 04:04:54;;;;;;;12.20;6.97;;;14.50;99.90;;;;;;4931490;29;20202;-82
2023/05/21 04:07:21;;;;;;;13.82;6.88;;;14.50;99.90;;;;;;4944014;29;20669;-82
2023/05/21 04:09:47;;;;;;;13.07;6.97;;;14.40;99.90;;;;;;4932875;29;20191;-81
2023/05/21 04:12:12;;;;;;;18.98;6.80;;;14.50;99.90;;;;;;4937721;28;20198;-81
2023/05/21 04:14:38;;;;;;;14.63;7.10;;;14.50;99.90;;;;;;4919709;29;20196;-82
2023/05/21 04:17:04;;;;;;;17.25;7.28;;;14.50;99.90;;;;;;4933795;29;20195;-90
2023/05/21 04:19:33;;;;;;;14.75;6.57;;;14.50;99.90;;;;;;4944692;29;20180;-81
2023/05/21 04:22:02;;;;;;;16.65;6.57;;;14.40;99.90;;;;;;4932462;29;20219;-80
2023/05/21 04:24:28;;;;;;;16.60;6.75;;;14.50;99.90;;;;;;4919084;29;20187;-80
2023/05/21 04:27:08;;;;;;;14.05;6.65;;;14.50;99.90;;;;;;4928741;29;20327;-82
2023/05/21 04:29:36;;;;;;;13.07;6.65;;;14.40;99.90;;;;;;4928920;29;20199;-81
2023/05/21 04:32:03;;;;;;;14.02;6.35;;;14.50;99.90;;;;;;4935541;29;20187;-83
2023/05/21 04:34:31;;;;;;;12.55;6.25;;;14.50;99.90;;;;;;4933529;29;20205;-82
2023/05/21 04:36:57;;;;;;;12.75;6.75;;;14.50;99.90;;;;;;4935346;29;20590;-80
2023/05/21 04:39:23;;;;;;;15.88;7.05;;;14.40;99.90;;;;;;4935351;29;20195;-82
2023/05/21 04:41:53;;;;;;;13.27;6.32;;;14.40;99.90;;;;;;4940679;29;20298;-84
2023/05/21 04:44:19;;;;;;;13.50;6.38;;;14.40;99.90;;;;;;4918740;29;20184;-81
2023/05/21 04:46:45;;;;;;;12.40;5.60;;;14.40;99.90;;;;;;4934114;29;20194;-81
2023/05/21 04:49:11;;;;;;;10.73;5.90;;;14.40;99.90;;;;;;4926727;29;20184;-82
2023/05/21 04:51:38;;;;;;;13.25;5.50;;;14.40;99.90;;;;;;4930674;29;20563;-81
2023/05/21 04:54:04;;;;;;;11.95;5.57;;;14.50;99.90;;;;;;4934366;29;20198;-84
2023/05/21 04:56:30;;;;;;;9.57;5.63;;;14.50;99.90;;;;;;4935106;29;20198;-81
2023/05/21 04:58:57;;;;;;;13.82;5.78;;;14.50;99.90;;;;;;4926783;29;20191;-81
2023/05/21 05:01:25;;;;;;;13.10;5.78;;;14.50;99.90;;;;;;4918631;29;20208;-81
2023/05/21 05:03:52;;;;;;;10.57;5.63;;;14.60;99.90;;;;;;4931590;29;20235;-81
2023/05/21 05:06:17;;;;;;;8.55;5.00;;;14.60;99.90;;;;;;4934129;29;20225;-82
2023/05/21 05:08:47;;;;;;;10.00;5.38;;;14.60;99.90;;;;;;4935094;29;20653;-81
2023/05/21 05:11:14;;;;;;;13.15;5.78;;;14.60;99.90;;;;;;4934738;29;20253;-81
2023/05/21 05:13:40;;;;;;;15.13;5.95;;;14.60;99.90;;;;;;4950918;29;20277;-80
2023/05/21 05:16:07;;;;;;;10.80;5.47;;;14.60;99.90;;;;;;4950222;29;20716;-81
2023/05/21 05:18:34;;;;;;;13.15;6.05;;;14.60;99.90;;;;;;4934098;29;20191;-80
2023/05/21 05:21:00;;;;;;;10.88;5.22;;;14.70;99.90;;;;;;4934297;29;20625;-80
2023/05/21 05:23:26;;;;;;;12.48;5.63;;;14.70;99.90;;;;;;4918217;29;20192;-81
2023/05/21 05:25:51;;;;;;;12.48;5.40;;;14.70;99.90;;;;;;4950339;29;20187;-81
2023/05/21 05:28:17;;;;;;;12.65;5.82;;;14.70;99.90;;;;;;4950412;29;20197;-82
2023/05/21 05:30:43;;;;;;;12.23;5.03;;;14.70;99.90;;;;;;4932821;29;20196;-83
2023/05/21 05:33:18;;;;;;;12.27;5.50;;;14.70;99.90;;;;;;4933816;29;20191;-81
2023/05/21 05:35:44;;;;;;;11.23;5.47;;;14.80;99.90;;;;;;4929537;29;20198;-81
2023/05/21 05:38:10;;;;;;;16.10;5.50;;;14.80;99.90;;;;;;4918194;29;20215;-81
2023/05/21 05:40:36;;;;;;;12.27;5.10;;;14.90;99.90;;;;;;4934421;29;20191;-81
2023/05/21 05:43:02;;;;;;;10.32;5.47;;;14.90;99.90;;;;;;4934417;29;20192;-81
2023/05/21 05:45:27;;;;;;;11.75;5.45;;;15.00;99.90;;;;;;4928454;29;20669;-83
2023/05/21 05:47:53;;;;;;;17.63;5.70;;;15.00;99.90;;;;;;4949675;29;20192;-81
2023/05/21 05:50:19;;;;;;;11.07;5.47;;;15.10;99.90;;;;;;4926562;29;20180;-80
2023/05/21 05:52:45;;;;;;;14.80;5.80;;;15.10;99.90;;;;;;4930563;29;20239;-81
2023/05/21 05:55:11;;;;;;;10.18;5.18;;;15.10;99.90;;;;;;4932772;29;20227;-82
2023/05/21 05:57:37;;;;;;;10.48;4.90;;;15.10;99.90;;;;;;4911146;29;20198;-80
2023/05/21 06:00:11;;;;;;;10.60;4.63;;;15.20;99.90;;;;;;4942984;29;20278;-81
2023/05/21 06:02:42;;;;;;;9.90;5.07;;;15.30;99.90;;;;;;4944331;29;20218;-82
2023/05/21 06:05:09;;;;;;;10.88;5.53;;;15.30;99.90;;;;;;4925060;29;20183;-82
2023/05/21 06:07:37;;;;;;;13.15;5.63;;;15.40;99.90;;;;;;4927070;29;20569;-81
2023/05/21 06:10:05;;;;;;;17.13;5.15;;;15.30;99.90;;;;;;4944779;29;20278;-81
2023/05/21 06:12:30;;;;;;;11.05;5.22;;;15.40;99.90;;;;;;4948122;29;20719;-81
2023/05/21 06:14:56;;;;;;;9.70;4.88;;;15.40;99.90;;;;;;4922387;29;20187;-80
2023/05/21 06:17:22;;;;;;;11.60;5.13;;;15.50;99.90;;;;;;4915115;29;20196;-83
2023/05/21 06:19:48;;;;;;;10.68;5.20;;;15.50;99.90;;;;;;4933037;29;20222;-81
2023/05/21 06:22:14;;;;;;;10.48;5.03;;;15.50;99.90;;;;;;4917635;29;20341;-86
2023/05/21 06:24:40;;;;;;;11.60;5.03;;;15.60;99.90;;;;;;4895374;29;20199;-82
2023/05/21 06:27:06;;;;;;;10.98;4.97;;;15.60;99.90;;;;;;4933284;29;20200;-82
2023/05/21 06:29:32;;;;;;;13.27;5.28;;;15.60;99.90;;;;;;4924069;29;20220;-81
2023/05/21 06:32:00;;;;;;;11.20;5.35;;;15.60;99.90;;;;;;4928885;29;20274;-82
2023/05/21 06:34:27;;;;;;;10.95;5.15;;;15.70;99.90;;;;;;4946336;29;20652;-81
2023/05/21 06:36:53;;;;;;;13.32;5.20;;;15.70;99.90;;;;;;4931741;29;20206;-81
2023/05/21 06:39:19;;;;;;;12.27;5.28;;;15.80;99.90;;;;;;4932333;29;20187;-82
2023/05/21 06:41:45;;;;;;;13.38;5.90;;;15.80;99.90;;;;;;4929549;29;20230;-82
2023/05/21 06:44:36;;;;;;;11.82;5.28;;;15.80;99.90;;;;;;4924876;29;20191;-82
2023/05/21 06:47:12;;;;;;;11.55;5.70;;;15.90;99.90;;;;;;4930775;29;20265;-81
2023/05/21 06:49:38;;;;;;;11.13;5.47;;;15.90;99.90;;;;;;4930915;29;20621;-82
2023/05/21 06:52:04;;;;;;;15.80;5.93;;;16.00;99.90;;;;;;4933103;29;20195;-83
2023/05/21 06:54:30;;;;;;;12.60;6.38;;;16.00;99.90;;;;;;4936580;29;20259;-81
2023/05/21 06:56:56;;;;;;;9.20;5.90;;;16.10;99.90;;;;;;4920967;29;20183;-83
2023/05/21 06:59:23;;;;;;;15.90;6.55;;;16.10;99.90;;;;;;4918403;29;20318;-82
2023/05/21 07:01:49;;;;;;;15.68;6.00;;;16.20;99.90;;;;;;4935627;29;20306;-81
2023/05/21 07:04:14;;;;;;;15.82;7.03;;;16.20;99.90;;;;;;4933956;29;20249;-81
2023/05/21 07:06:42;;;;;;;12.60;5.80;;;16.30;99.90;;;;;;4935180;29;20629;-82
2023/05/21 07:09:07;;;;;;;15.23;6.30;;;16.40;99.90;;;;;;4931836;29;20196;-83
2023/05/21 07:11:34;;;;;;;13.15;6.05;;;16.40;99.90;;;;;;4935151;29;20559;-82
2023/05/21 07:14:02;;;;;;;11.25;5.43;;;16.50;99.90;;;;;;4935693;29;20275;-81
2023/05/21 07:16:30;;;;;;;10.65;5.88;;;16.50;99.90;;;;;;4928968;29;20188;-81
2023/05/21 07:18:57;;;;;;;13.95;5.75;;;16.60;99.90;;;;;;4929983;29;20196;-81
2023/05/21 07:21:23;;;;;;;12.52;5.63;;;16.70;99.90;;;;;;4925837;29;20230;-81
2023/05/21 07:23:50;;;;;;;12.25;5.72;;;16.70;99.90;;;;;;4935749;29;20219;-82
2023/05/21 07:26:17;;;;;;;11.75;5.10;;;16.80;99.90;;;;;;4934467;29;20214;-83
2023/05/21 07:28:44;;;;;;;11.02;5.38;;;16.80;99.90;;;;;;4932521;29;20196;-82
2023/05/21 07:31:12;;;;;;;9.02;4.70;;;16.90;99.90;;;;;;4930841;29;20221;-82
2023/05/21 07:33:43;;;;;;;10.63;5.13;;;16.90;99.90;;;;;;4935468;29;20606;-82
2023/05/21 07:36:11;;;;;;;10.32;5.00;;;16.90;99.90;;;;;;4934895;29;20191;-82
2023/05/21 07:38:36;;;;;;;8.15;4.75;;;17.00;99.90;;;;;;4934984;29;20653;-82
2023/05/21 07:41:02;;;;;;;10.57;4.13;;;17.00;99.90;;;;;;4936095;29;20219;-82
2023/05/21 07:43:30;;;;;;;10.73;4.93;;;17.10;99.90;;;;;;4934212;29;20184;-84
2023/05/21 07:45:56;;;;;;;8.65;4.47;;;17.10;99.90;;;;;;4936027;29;20187;-85
2023/05/21 07:48:22;;;;;;;15.27;5.10;;;17.20;99.90;;;;;;4917192;29;20709;-88
2023/05/21 07:50:53;;;;;;;9.25;5.00;;;17.30;99.90;;;;;;4929193;29;20195;-82
2023/05/21 07:53:19;;;;;;;16.13;4.95;;;17.40;99.90;;;;;;4936238;29;20191;-83
2023/05/21 07:55:46;;;;;;;9.73;4.72;;;17.40;99.90;;;;;;4926763;29;20242;-82
2023/05/21 07:58:18;;;;;;;12.05;4.88;;;17.50;99.90;;;;;;4920777;29;20215;-82
2023/05/21 08:00:46;;;;;;;9.88;4.95;;;17.50;99.90;;;;;;4933754;29;20191;-82
2023/05/21 08:03:16;;;;;;;15.07;4.72;;;17.60;99.90;;;;;;4918733;29;20246;-82
2023/05/21 08:05:49;;;;;;;12.43;4.65;;;17.70;99.90;;;;;;4931131;29;20192;-83
2023/05/21 08:08:17;;;;;;;9.23;4.30;;;17.70;99.90;;;;;;4933464;29;20184;-82
2023/05/21 08:10:44;;;;;;;8.32;4.97;;;17.70;99.90;;;;;;4934953;29;20282;-81
2023/05/21 08:13:11;;;;;;;9.15;4.05;;;17.70;99.90;;;;;;4936107;29;20642;-83
2023/05/21 08:15:37;;;;;;;9.25;4.18;;;17.70;99.90;;;;;;4934906;29;20192;-83
2023/05/21 08:18:04;;;;;;;13.02;4.70;;;17.70;99.90;;;;;;4926155;29;20213;-84
2023/05/21 08:20:32;;;;;;;10.02;4.63;;;17.80;99.90;;;;;;4932082;29;20211;-83
2023/05/21 08:22:59;;;;;;;11.60;4.65;;;17.80;99.90;;;;;;4934251;29;20231;-82
2023/05/21 08:25:25;;;;;;;10.25;4.70;;;17.80;99.90;;;;;;4938608;29;20206;-82
2023/05/21 08:27:54;;;;;;;11.93;5.05;;;17.90;99.90;;;;;;4931982;29;20188;-82
2023/05/21 08:30:20;;;;;;;11.00;5.03;;;17.90;99.90;;;;;;4932116;29;20226;-83
2023/05/21 08:32:47;;;;;;;10.80;4.75;;;18.00;99.90;;;;;;4932480;29;20192;-82
2023/05/21 08:35:15;;;;;;;13.05;5.10;;;18.00;99.90;;;;;;4930775;29;20187;-82
2023/05/21 08:37:57;;;;;;;10.35;4.75;;;18.10;99.90;;;;;;4933203;29;20255;-82
2023/05/21 08:40:34;;;;;;;13.38;4.90;;;18.10;99.90;;;;;;4933679;29;20698;-82
2023/05/21 08:43:00;;;;;;;10.15;4.20;;;18.20;99.90;;;;;;4919760;29;20289;-83
2023/05/21 08:45:44;;;;;;;12.35;4.70;;;18.20;99.90;;;;;;4920875;29;20210;-81
2023/05/21 08:48:13;;;;;;;9.73;4.35;;;18.30;99.90;;;;;;4934566;29;20179;-82
2023/05/21 08:50:40;;;;;;;8.90;4.25;;;18.40;99.90;;;;;;4936406;29;20601;-81
2023/05/21 08:53:26;;;;;;;8.20;4.32;;;18.50;99.90;;;;;;4935534;29;20225;-81
2023/05/21 08:55:56;;;;;;;9.13;5.07;;;18.60;99.90;;;;;;4920498;29;20330;-82
2023/05/21 08:58:25;;;;;;;16.38;4.85;;;18.60;99.90;;;;;;4919239;29;20659;-82
2023/05/21 09:00:54;;;;;;;11.52;4.70;;;18.60;99.90;;;;;;4942728;29;20219;-81
2023/05/21 09:03:22;;;;;;;10.98;4.78;;;18.70;99.90;;;;;;4950308;29;20188;-82
2023/05/21 09:05:50;;;;;;;7.18;4.10;;;18.70;99.90;;;;;;4933767;29;20207;-81
2023/05/21 09:08:33;;;;;;;11.65;4.40;;;18.80;99.90;;;;;;4933228;29;20226;-83
2023/05/21 09:11:02;;;;;;;10.50;4.50;;;18.90;99.90;;;;;;4943359;29;20700;-82
2023/05/21 09:13:36;;;;;;;10.18;4.93;;;19.00;99.90;;;;;;4932178;29;20236;-82
2023/05/21 09:16:06;;;;;;;8.98;3.80;;;19.10;99.90;;;;;;4917827;29;20585;-83
2023/05/21 09:18:32;;;;;;;10.77;4.30;;;19.20;99.90;;;;;;4929403;29;20242;-82
2023/05/21 09:21:30;;;;;;;9.82;4.70;;;19.20;99.90;;;;;;4923410;29;20212;-83
2023/05/21 09:24:13;;;;;;;11.13;4.20;;;19.20;99.90;;;;;;4941558;29;20178;-83
2023/05/21 09:26:42;;;;;;;12.85;4.43;;;19.20;99.90;;;;;;4933657;29;20334;-82
2023/05/21 09:29:09;;;;;;;8.90;4.20;;;19.30;99.90;;;;;;4936691;29;20252;-80
2023/05/21 09:31:35;;;;;;;11.13;4.30;;;19.40;99.90;;;;;;4930922;29;20655;-80
2023/05/21 09:34:01;;;;;;;10.35;4.22;;;19.40;99.90;;;;;;4915138;29;20224;-84
2023/05/21 09:36:30;;;;;;;8.88;3.70;;;19.50;99.90;;;;;;4916510;29;20502;-80
2023/05/21 09:38:58;;;;;;;9.13;4.50;;;19.60;99.90;;;;;;4934018;29;20186;-80
2023/05/21 09:41:33;;;;;;;10.20;4.15;;;19.70;99.90;;;;;;4950620;29;20319;-81
2023/05/21 09:44:02;;;;;;;10.23;4.70;;;19.80;99.90;;;;;;4918350;29;20278;-80
2023/05/21 09:46:39;;;;;;;352.50;22.08;;;19.90;99.90;;;;;;4932223;29;20314;-82
2023/05/21 09:49:06;;;;;;;10.05;4.82;;;20.00;99.90;;;;;;4935815;29;20233;-82
2023/05/21 09:51:32;;;;;;;8.45;4.50;;;20.10;99.90;;;;;;4934763;29;20182;-84
2023/05/21 09:53:58;;;;;;;10.15;4.32;;;20.10;99.90;;;;;;4934765;29;20675;-79
2023/05/21 09:56:30;;;;;;;10.57;4.25;;;20.20;99.90;;;;;;4935621;29;20499;-82
2023/05/21 09:58:59;;;;;;;10.75;4.57;;;20.20;99.90;;;;;;4935634;29;20195;-80
2023/05/21 10:01:25;;;;;;;9.80;4.72;;;20.30;99.90;;;;;;4934935;29;20207;-79
2023/05/21 10:03:56;;;;;;;8.63;4.57;;;20.30;99.90;;;;;;4933524;29;20183;-79
2023/05/21 10:06:27;;;;;;;9.15;4.47;;;20.40;99.90;;;;;;4935039;29;20175;-79
2023/05/21 10:08:57;;;;;;;9.00;4.28;;;20.40;99.90;;;;;;4935078;29;20553;-79
2023/05/21 10:11:25;;;;;;;12.85;4.55;;;20.50;99.90;;;;;;4935598;29;20195;-79
2023/05/21 10:14:04;;;;;;;7.60;4.18;;;20.50;99.90;;;;;;4935455;29;20191;-80
2023/05/21 10:16:32;;;;;;;8.13;3.95;;;20.50;99.90;;;;;;4935731;29;20162;-79
2023/05/21 10:18:59;;;;;;;9.63;4.63;;;20.50;99.90;;;;;;4934384;29;20215;-79
2023/05/21 10:21:26;;;;;;;11.57;4.30;;;20.50;99.90;;;;;;4934865;29;20219;-79
2023/05/21 10:23:55;;;;;;;6.80;3.83;;;20.60;99.90;;;;;;4936554;29;20190;-79
2023/05/21 10:26:22;;;;;;;8.73;4.05;;;20.70;99.90;;;;;;4926278;29;20287;-78
2023/05/21 10:28:50;;;;;;;8.02;4.13;;;20.70;99.90;;;;;;4919072;29;20266;-79
2023/05/21 10:31:16;;;;;;;7.75;4.75;;;20.70;99.90;;;;;;4903904;29;20211;-79
2023/05/21 10:33:43;;;;;;;10.20;4.80;;;20.70;99.90;;;;;;4932682;29;20187;-79
2023/05/21 10:36:09;;;;;;;7.22;3.60;;;20.70;99.90;;;;;;4931612;29;20178;-79
2023/05/21 10:38:37;;;;;;;10.35;3.08;;;20.80;99.90;;;;;;4939097;29;20211;-79
2023/05/21 10:41:05;;;;;;;12.80;3.85;;;20.80;99.90;;;;;;4939122;29;20353;-79
2023/05/21 10:43:43;;;;;;;10.27;3.97;;;20.90;99.90;;;;;;4938411;29;20194;-79
2023/05/21 10:46:33;;;;;;;10.35;3.92;;;21.00;99.90;;;;;;4938217;29;20203;-79
2023/05/21 10:49:07;;;;;;;13.13;4.53;;;21.00;99.90;;;;;;4920407;29;20561;-79
2023/05/21 10:52:03;;;;;;;7.00;4.30;;;21.00;99.90;;;;;;4939072;29;20199;-79
2023/05/21 10:54:43;;;;;;;9.60;3.83;;;21.00;99.90;;;;;;4918349;29;20188;-81
2023/05/21 10:57:45;;;;;;;9.98;4.20;;;21.00;99.90;;;;;;4927211;29;20196;-80
2023/05/21 11:00:13;;;;;;;10.93;4.20;;;21.00;99.90;;;;;;4934146;29;20709;-80
2023/05/21 11:02:39;;;;;;;11.40;4.07;;;21.10;99.90;;;;;;4938508;29;20230;-78
2023/05/21 11:05:05;;;;;;;11.98;4.80;;;21.10;99.90;;;;;;4933888;29;20227;-79
2023/05/21 11:07:55;;;;;;;9.82;4.80;;;21.10;99.90;;;;;;4922837;29;20602;-78
2023/05/21 11:10:53;;;;;;;8.85;4.47;;;21.10;99.90;;;;;;4937521;29;20270;-79
2023/05/21 11:13:20;;;;;;;9.52;4.53;;;21.10;99.90;;;;;;4923743;29;20259;-79
2023/05/21 11:15:58;;;;;;;7.55;4.68;;;21.10;99.90;;;;;;4938295;29;20190;-81
2023/05/21 11:18:36;;;;;;;8.88;4.50;;;21.20;99.90;;;;;;4948100;29;20183;-80
2023/05/21 11:21:13;;;;;;;10.20;4.63;;;21.20;99.90;;;;;;4938089;29;20210;-79
2023/05/21 11:24:00;;;;;;;10.52;4.80;;;21.30;99.90;;;;;;4936770;29;20179;-79
2023/05/21 11:26:50;;;;;;;9.88;4.97;;;21.40;99.90;;;;;;4933377;29;20184;-78
2023/05/21 11:29:17;;;;;;;14.27;5.53;;;21.40;99.90;;;;;;4925016;29;20188;-78
2023/05/21 11:31:47;;;;;;;12.80;4.68;;;21.40;99.90;;;;;;4938069;29;20270;-78
2023/05/21 11:34:30;;;;;;;12.48;5.50;;;21.50;99.90;;;;;;4935731;29;20191;-80
2023/05/21 11:37:30;;;;;;;7.88;4.45;;;21.50;99.90;;;;;;4935868;29;20187;-79
2023/05/21 11:40:16;;;;;;;9.07;5.25;;;21.50;99.90;;;;;;4936538;29;20732;-80
2023/05/21 11:42:42;;;;;;;13.07;5.70;;;21.50;99.90;;;;;;4919432;29;20266;-81
2023/05/21 11:45:09;;;;;;;16.27;6.07;;;21.50;99.90;;;;;;4919075;29;20219;-80
2023/05/21 11:47:35;;;;;;;11.27;6.25;;;21.50;99.90;;;;;;4936869;29;20270;-82
2023/05/21 11:50:02;;;;;;;9.77;6.15;;;21.50;99.90;;;;;;4934401;29;20184;-80
2023/05/21 11:52:30;;;;;;;15.93;6.53;;;21.50;99.90;;;;;;4935838;29;20179;-83
2023/05/21 11:54:57;;;;;;;16.20;7.13;;;21.40;99.90;;;;;;4936392;29;20302;-81
2023/05/21 11:57:30;;;;;;;11.35;6.50;;;21.40;99.90;;;;;;4940321;29;20191;-81
2023/05/21 11:59:57;;;;;;;13.38;6.88;;;21.40;99.90;;;;;;4947637;29;20216;-79
2023/05/21 12:02:26;;;;;;;13.45;6.70;;;21.20;99.90;;;;;;4920042;29;20204;-79
2023/05/21 12:04:52;;;;;;;10.35;6.55;;;21.20;99.90;;;;;;4936538;29;20195;-79
2023/05/21 12:07:19;;;;;;;17.30;6.90;;;21.20;99.90;;;;;;4935838;29;20270;-79
2023/05/21 12:09:46;;;;;;;15.63;7.15;;;21.10;99.90;;;;;;4936027;29;20599;-80
2023/05/21 12:12:17;;;;;;;14.45;7.18;;;21.10;99.90;;;;;;4937136;29;20649;-79
2023/05/21 12:14:45;;;;;;;9.93;6.85;;;21.10;99.90;;;;;;4937436;29;20187;-79
2023/05/21 12:17:15;;;;;;;13.90;6.97;;;21.10;99.90;;;;;;4926966;29;20196;-80
2023/05/21 12:19:41;;;;;;;13.43;7.10;;;21.10;99.90;;;;;;4937140;29;20171;-79
2023/05/21 12:22:08;;;;;;;17.05;7.38;;;21.10;99.90;;;;;;4941185;29;20594;-79
2023/05/21 12:24:35;;;;;;;17.02;7.80;;;21.20;99.90;;;;;;4935449;29;20206;-79
2023/05/21 12:27:08;;;;;;;15.40;8.00;;;21.20;99.90;;;;;;4934740;29;20175;-79
2023/05/21 12:29:38;;;;;;;16.08;8.35;;;21.30;99.90;;;;;;4936769;29;20179;-81
2023/05/21 12:32:07;;;;;;;16.88;8.38;;;21.30;99.90;;;;;;4919688;29;20191;-79
2023/05/21 12:34:41;;;;;;;19.05;8.48;;;21.30;99.90;;;;;;4936476;29;20199;-79
2023/05/21 12:37:08;;;;;;;14.98;9.70;;;21.30;99.90;;;;;;4935292;29;20174;-79
2023/05/21 12:39:42;;;;;;;17.27;9.15;;;21.40;99.90;;;;;;4936707;29;20184;-79
2023/05/21 12:42:08;;;;;;;13.95;8.55;;;21.40;99.90;;;;;;4931395;29;20284;-79
2023/05/21 12:44:34;;;;;;;18.30;7.90;;;21.50;99.90;;;;;;4935459;29;20274;-80
2023/05/21 12:47:01;;;;;;;14.73;8.20;;;21.40;99.90;;;;;;4935662;29;20692;-82
2023/05/21 12:49:35;;;;;;;13.13;7.68;;;21.50;99.90;;;;;;4936409;29;20183;-81